createdAt,value
2022-08-03T00:01:50.323Z,21.00
2022-08-03T00:04:17.105Z,20.97
2022-08-03T00:06:43.993Z,20.97
2022-08-03T00:09:10.909Z,20.94
2022-08-03T00:11:37.627Z,20.90
2022-08-03T00:14:05.601Z,20.84
2022-08-03T00:16:32.274Z,20.82
2022-08-03T00:18:58.737Z,20.78
2022-08-03T00:21:27.497Z,20.75
2022-08-03T00:23:53.968Z,20.74
2022-08-03T00:26:21.910Z,20.71
2022-08-03T00:28:49.151Z,20.67
2022-08-03T00:31:15.760Z,20.66
2022-08-03T00:33:58.008Z,20.63
2022-08-03T00:36:29.182Z,20.58
2022-08-03T00:38:56.293Z,20.54
2022-08-03T00:41:22.822Z,20.50
2022-08-03T00:43:49.261Z,20.46
2022-08-03T00:46:20.827Z,20.40
2022-08-03T00:48:51.152Z,20.32
2022-08-03T00:51:19.875Z,20.28
2022-08-03T00:53:46.398Z,20.24
2022-08-03T00:56:15.048Z,20.21
2022-08-03T00:58:43.332Z,20.16
2022-08-03T01:01:10.036Z,20.13
2022-08-03T01:03:36.538Z,20.10
2022-08-03T01:06:19.150Z,20.09
2022-08-03T01:08:58.894Z,20.08
2022-08-03T01:12:00.278Z,20.05
2022-08-03T01:14:36.181Z,20.01
2022-08-03T01:17:14.828Z,20.03
2022-08-03T01:19:44.787Z,20.05
2022-08-03T01:22:29.721Z,20.03
2022-08-03T01:24:56.152Z,20.03
2022-08-03T01:27:29.242Z,20.04
2022-08-03T01:30:08.025Z,20.03
2022-08-03T01:32:59.468Z,20.01
2022-08-03T01:35:45.436Z,19.98
2022-08-03T01:38:15.606Z,19.99
2022-08-03T01:40:44.395Z,20.00
2022-08-03T01:43:15.211Z,19.98
2022-08-03T01:46:03.165Z,19.95
2022-08-03T01:48:31.728Z,19.87
2022-08-03T01:51:00.083Z,19.83
2022-08-03T01:53:27.887Z,19.77
2022-08-03T01:55:56.027Z,19.74
2022-08-03T01:58:25.122Z,19.68
2022-08-03T02:00:53.062Z,19.62
2022-08-03T02:03:22.209Z,19.56
2022-08-03T02:05:54.125Z,19.51
2022-08-03T02:08:34.015Z,19.47
2022-08-03T02:11:02.211Z,19.47
2022-08-03T02:13:29.543Z,19.45
2022-08-03T02:15:58.027Z,19.44
2022-08-03T02:18:26.317Z,19.43
2022-08-03T02:20:52.739Z,19.44
2022-08-03T02:23:19.412Z,19.43
2022-08-03T02:25:50.980Z,19.41
2022-08-03T02:28:21.056Z,19.41
2022-08-03T02:30:55.923Z,19.40
2022-08-03T02:33:30.617Z,19.38
2022-08-03T02:35:57.795Z,19.35
2022-08-03T02:38:31.143Z,19.34
2022-08-03T02:40:58.787Z,19.31
2022-08-03T02:43:26.443Z,19.27
2022-08-03T02:45:54.287Z,19.23
2022-08-03T02:48:24.865Z,19.20
2022-08-03T02:50:53.988Z,19.17
2022-08-03T02:53:22.349Z,19.12
2022-08-03T02:55:50.090Z,19.08
2022-08-03T02:58:21.206Z,19.02
2022-08-03T03:00:49.003Z,19.00
2022-08-03T03:03:15.665Z,18.99
2022-08-03T03:05:53.174Z,18.98
2022-08-03T03:08:25.958Z,18.94
2022-08-03T03:10:55.607Z,18.92
2022-08-03T03:13:22.944Z,18.89
2022-08-03T03:15:50.777Z,18.87
2022-08-03T03:18:22.089Z,18.85
2022-08-03T03:20:50.404Z,18.86
2022-08-03T03:23:17.821Z,18.87
2022-08-03T03:25:45.036Z,18.84
2022-08-03T03:28:11.720Z,18.85
2022-08-03T03:30:38.562Z,18.84
2022-08-03T03:33:05.231Z,18.85
2022-08-03T03:35:38.789Z,18.86
2022-08-03T03:38:06.439Z,18.83
2022-08-03T03:40:34.943Z,18.81
2022-08-03T03:43:01.660Z,18.79
2022-08-03T03:45:28.809Z,18.76
2022-08-03T03:47:55.377Z,18.74
2022-08-03T03:50:22.661Z,18.71
2022-08-03T03:52:49.130Z,18.66
2022-08-03T03:55:17.792Z,18.64
2022-08-03T03:57:44.739Z,18.58
2022-08-03T04:00:13.346Z,18.57
2022-08-03T04:02:39.960Z,18.53
2022-08-03T04:05:25.594Z,18.50
2022-08-03T04:08:18.051Z,18.47
2022-08-03T04:11:07.136Z,18.45
2022-08-03T04:13:37.629Z,18.46
2022-08-03T04:16:06.474Z,18.48
2022-08-03T04:18:35.263Z,18.53
2022-08-03T04:21:03.880Z,18.55
2022-08-03T04:23:33.814Z,18.57
2022-08-03T04:26:02.751Z,18.58
2022-08-03T04:28:32.437Z,18.61
2022-08-03T04:31:04.319Z,18.63
2022-08-03T04:33:34.894Z,18.66
2022-08-03T04:36:06.246Z,18.65
2022-08-03T04:38:36.815Z,18.63
2022-08-03T04:41:04.610Z,18.61
2022-08-03T04:43:33.442Z,18.63
2022-08-03T04:46:01.445Z,18.61
2022-08-03T04:48:29.034Z,18.62
2022-08-03T04:50:55.665Z,18.61
2022-08-03T04:53:22.420Z,18.61
2022-08-03T04:55:49.951Z,18.63
2022-08-03T04:58:16.382Z,18.65
2022-08-03T05:00:43.184Z,18.69
2022-08-03T05:03:19.418Z,18.71
2022-08-03T05:06:09.831Z,18.69
2022-08-03T05:08:46.377Z,18.68
2022-08-03T05:11:17.485Z,18.69
2022-08-03T05:13:45.283Z,18.70
2022-08-03T05:16:12.164Z,18.70
2022-08-03T05:18:38.630Z,18.71
2022-08-03T05:21:05.099Z,18.74
2022-08-03T05:23:31.746Z,18.77
2022-08-03T05:25:58.330Z,18.80
2022-08-03T05:28:24.835Z,18.83
2022-08-03T05:30:51.249Z,18.85
2022-08-03T05:33:17.670Z,18.89
2022-08-03T05:36:02.485Z,18.91
2022-08-03T05:38:34.034Z,18.95
2022-08-03T05:41:22.766Z,18.99
2022-08-03T05:43:47.322Z,19.06
2022-08-03T05:46:13.864Z,19.12
2022-08-03T05:48:41.517Z,19.20
2022-08-03T05:51:11.522Z,19.30
2022-08-03T05:53:42.455Z,19.39
2022-08-03T05:56:14.412Z,19.52
2022-08-03T05:58:48.365Z,19.64
2022-08-03T06:01:16.843Z,19.75
2022-08-03T06:03:43.873Z,19.88
2022-08-03T06:06:11.411Z,20.02
2022-08-03T06:08:38.205Z,20.14
2022-08-03T06:11:04.854Z,20.27
2022-08-03T06:13:31.326Z,20.39
2022-08-03T06:15:58.001Z,20.53
2022-08-03T06:18:24.666Z,20.65
2022-08-03T06:20:52.344Z,20.80
2022-08-03T06:23:19.618Z,20.96
2022-08-03T06:25:46.702Z,21.08
2022-08-03T06:28:51.217Z,21.21
2022-08-03T06:31:06.613Z,21.38
2022-08-03T06:34:30.721Z,21.48
2022-08-03T06:36:20.365Z,21.60
2022-08-03T06:38:46.833Z,21.71
2022-08-03T06:41:13.370Z,21.82
2022-08-03T06:44:02.982Z,21.93
2022-08-03T06:46:26.282Z,22.04
2022-08-03T06:48:53.150Z,22.13
2022-08-03T06:51:19.703Z,22.25
2022-08-03T06:53:46.189Z,22.31
2022-08-03T06:56:12.659Z,22.40
2022-08-03T06:58:39.121Z,22.46
2022-08-03T07:01:05.697Z,22.56
2022-08-03T07:03:32.234Z,22.65
2022-08-03T07:05:59.525Z,22.76
2022-08-03T07:08:33.647Z,22.88
2022-08-03T07:11:00.966Z,23.00
2022-08-03T07:13:27.490Z,23.09
2022-08-03T07:15:55.989Z,23.20
2022-08-03T07:18:24.642Z,23.28
2022-08-03T07:20:56.343Z,23.40
2022-08-03T07:23:22.761Z,23.52
2022-08-03T07:25:49.231Z,23.60
2022-08-03T07:28:15.664Z,23.70
2022-08-03T07:30:42.088Z,23.81
2022-08-03T07:33:08.513Z,23.89
2022-08-03T07:35:35.089Z,23.90
2022-08-03T07:38:01.568Z,23.94
2022-08-03T07:40:31.624Z,24.05
2022-08-03T07:42:58.346Z,24.16
2022-08-03T07:45:26.453Z,24.27
2022-08-03T07:47:54.363Z,24.37
2022-08-03T07:50:21.862Z,24.46
2022-08-03T07:52:52.791Z,24.54
2022-08-03T07:55:21.600Z,24.68
2022-08-03T07:57:58.881Z,24.81
2022-08-03T08:00:25.313Z,24.87
2022-08-03T08:02:51.733Z,24.88
2022-08-03T08:05:18.235Z,24.95
2022-08-03T08:07:44.676Z,25.05
2022-08-03T08:10:18.047Z,25.19
2022-08-03T08:12:44.540Z,25.32
2022-08-03T08:15:10.997Z,25.43
2022-08-03T08:17:49.403Z,25.57
2022-08-03T08:20:28.104Z,25.67
2022-08-03T08:23:01.072Z,25.79
2022-08-03T08:25:29.478Z,25.95
2022-08-03T08:28:25.303Z,26.03
2022-08-03T08:30:42.578Z,26.08
2022-08-03T08:33:22.160Z,26.21
2022-08-03T08:35:50.486Z,26.30
2022-08-03T08:38:16.888Z,26.41
2022-08-03T08:40:43.485Z,26.56
2022-08-03T08:43:09.926Z,26.70
2022-08-03T08:45:37.512Z,26.88
2022-08-03T08:48:08.325Z,27.06
2022-08-03T08:50:38.029Z,27.21
2022-08-03T08:53:09.883Z,27.32
2022-08-03T08:55:58.003Z,27.42
2022-08-03T08:58:30.235Z,27.52
2022-08-03T09:00:57.180Z,27.63
2022-08-03T09:03:29.613Z,27.82
2022-08-03T09:05:58.972Z,27.98
2022-08-03T09:08:25.980Z,28.08
2022-08-03T09:10:52.480Z,28.16
2022-08-03T09:13:19.372Z,28.27
2022-08-03T09:15:57.136Z,28.34
2022-08-03T09:18:32.580Z,28.55
2022-08-03T09:21:34.421Z,28.68
2022-08-03T09:24:05.131Z,28.79
2022-08-03T09:26:34.777Z,28.95
2022-08-03T09:29:11.211Z,29.09
2022-08-03T09:31:44.719Z,29.20
2022-08-03T09:34:16.850Z,29.31
2022-08-03T09:36:48.092Z,29.29
2022-08-03T09:39:18.332Z,29.36
2022-08-03T09:42:03.732Z,29.55
2022-08-03T09:44:50.697Z,29.65
2022-08-03T09:47:37.461Z,29.76
2022-08-03T09:50:12.816Z,29.80
2022-08-03T09:52:52.348Z,29.97
2022-08-03T09:56:34.643Z,29.99
2022-08-03T09:58:09.370Z,30.17
2022-08-03T10:00:52.327Z,30.30
2022-08-03T10:03:18.815Z,30.47
2022-08-03T10:05:45.330Z,30.54
2022-08-03T10:08:16.410Z,30.71
2022-08-03T10:10:44.785Z,30.83
2022-08-03T10:13:13.821Z,31.02
2022-08-03T10:16:22.287Z,31.15
2022-08-03T10:18:27.576Z,31.32
2022-08-03T10:20:58.952Z,31.47
2022-08-03T10:23:25.588Z,31.60
2022-08-03T10:25:57.974Z,31.68
2022-08-03T10:28:25.011Z,31.86
2022-08-03T10:30:53.451Z,31.99
2022-08-03T10:33:51.350Z,32.10
2022-08-03T10:36:19.001Z,32.31
2022-08-03T10:38:52.539Z,32.52
2022-08-03T10:41:21.472Z,32.65
2022-08-03T10:43:56.662Z,32.77
2022-08-03T10:46:23.189Z,32.86
2022-08-03T10:48:52.430Z,32.92
2022-08-03T10:51:20.610Z,32.96
2022-08-03T10:53:55.478Z,33.03
2022-08-03T10:56:53.439Z,33.13
2022-08-03T10:59:46.588Z,33.33
2022-08-03T11:02:14.956Z,33.51
2022-08-03T11:04:44.746Z,33.63
2022-08-03T11:07:24.959Z,33.72
2022-08-03T11:09:53.777Z,33.76
2022-08-03T11:12:42.030Z,33.95
2022-08-03T11:15:08.931Z,34.11
2022-08-03T11:17:46.846Z,34.11
2022-08-03T11:20:45.773Z,34.20
2022-08-03T11:23:12.747Z,34.23
2022-08-03T11:26:10.780Z,34.38
2022-08-03T11:28:39.070Z,34.51
2022-08-03T11:31:48.864Z,34.64
2022-08-03T11:34:13.562Z,34.86
2022-08-03T11:37:17.558Z,34.95
2022-08-03T11:39:46.937Z,35.04
2022-08-03T11:42:22.800Z,35.13
2022-08-03T11:44:54.163Z,35.29
2022-08-03T11:47:22.304Z,35.38
2022-08-03T11:49:50.454Z,35.53
2022-08-03T11:52:18.394Z,35.56
2022-08-03T11:54:45.625Z,35.61
2022-08-03T11:57:12.327Z,35.44
2022-08-03T11:59:39.006Z,35.57
2022-08-03T12:02:14.610Z,35.62
2022-08-03T12:05:02.778Z,35.69
2022-08-03T12:08:02.430Z,35.75
2022-08-03T12:10:16.764Z,35.91
2022-08-03T12:12:46.353Z,36.10
2022-08-03T12:15:13.094Z,36.34
2022-08-03T12:17:41.272Z,36.52
2022-08-03T12:20:10.261Z,36.70
2022-08-03T12:22:39.201Z,36.85
2022-08-03T12:25:07.202Z,37.05
2022-08-03T12:27:33.788Z,36.93
2022-08-03T12:30:01.708Z,37.03
2022-08-03T12:32:29.815Z,37.16
2022-08-03T12:35:00.708Z,37.14
2022-08-03T12:37:27.796Z,37.23
2022-08-03T12:40:02.511Z,37.47
2022-08-03T12:42:37.921Z,37.62
2022-08-03T12:45:24.605Z,37.60
2022-08-03T12:47:57.161Z,37.56
2022-08-03T12:50:34.088Z,37.70
2022-08-03T12:53:03.105Z,37.75
2022-08-03T12:55:57.300Z,37.72
2022-08-03T12:58:34.548Z,37.38
2022-08-03T13:01:04.754Z,37.09
2022-08-03T13:03:42.953Z,36.91
2022-08-03T13:06:26.481Z,36.90
2022-08-03T13:09:07.324Z,37.20
2022-08-03T13:11:55.966Z,37.50
2022-08-03T13:14:21.013Z,37.85
2022-08-03T13:16:49.136Z,38.24
2022-08-03T13:19:16.147Z,38.51
2022-08-03T13:22:01.410Z,38.85
2022-08-03T13:24:31.470Z,38.74
2022-08-03T13:26:58.317Z,38.55
2022-08-03T13:29:24.744Z,38.12
2022-08-03T13:31:51.605Z,37.76
2022-08-03T13:34:23.074Z,37.91
2022-08-03T13:39:57.226Z,37.76
2022-08-03T13:42:25.517Z,37.95
2022-08-03T13:44:52.058Z,38.05
2022-08-03T13:47:19.354Z,38.08
2022-08-03T13:50:00.515Z,38.18
2022-08-03T13:52:29.651Z,37.98
2022-08-03T13:54:56.049Z,37.87
2022-08-03T13:58:02.399Z,37.67
2022-08-03T14:00:09.800Z,37.40
2022-08-03T14:02:37.285Z,37.24
2022-08-03T14:05:03.939Z,37.18
2022-08-03T14:07:30.372Z,37.35
2022-08-03T14:09:56.987Z,37.56
2022-08-03T14:12:23.418Z,37.98
2022-08-03T14:14:49.883Z,38.40
2022-08-03T14:17:16.676Z,38.74
2022-08-03T14:19:53.311Z,38.73
2022-08-03T14:22:20.934Z,39.00
2022-08-03T14:24:47.451Z,39.33
2022-08-03T14:27:13.983Z,39.53
2022-08-03T14:29:40.386Z,39.58
2022-08-03T14:32:10.921Z,39.53
2022-08-03T14:34:39.398Z,39.49
2022-08-03T14:37:06.244Z,39.55
2022-08-03T14:42:20.418Z,39.25
2022-08-03T14:44:47.364Z,39.52
2022-08-03T14:47:14.055Z,39.67
2022-08-03T14:50:38.080Z,39.80
2022-08-03T14:52:26.967Z,40.08
2022-08-03T14:54:53.395Z,40.43
2022-08-03T14:57:19.915Z,40.79
2022-08-03T14:59:55.550Z,41.04
2022-08-03T15:02:24.910Z,41.13
2022-08-03T15:04:52.334Z,41.20
2022-08-03T15:07:19.246Z,40.96
2022-08-03T15:09:46.242Z,40.96
2022-08-03T15:12:12.822Z,41.26
2022-08-03T15:14:39.283Z,41.52
2022-08-03T15:17:06.792Z,41.74
2022-08-03T15:20:03.517Z,42.05
2022-08-03T15:22:20.501Z,42.05
2022-08-03T15:24:51.294Z,41.85
2022-08-03T15:27:17.989Z,41.44
2022-08-03T15:30:07.595Z,41.53
2022-08-03T15:32:30.908Z,41.11
2022-08-03T15:35:00.540Z,41.12
2022-08-03T15:37:27.920Z,41.06
2022-08-03T15:39:58.812Z,41.28
2022-08-03T15:42:28.223Z,41.59
2022-08-03T15:44:54.859Z,41.94
2022-08-03T15:47:21.674Z,42.18
2022-08-03T15:49:48.411Z,42.48
2022-08-03T15:52:14.809Z,42.73
2022-08-03T15:54:41.418Z,43.02
2022-08-03T15:57:07.859Z,43.10
2022-08-03T15:59:34.411Z,42.53
2022-08-03T16:02:00.959Z,42.75
2022-08-03T16:04:27.462Z,42.80
2022-08-03T16:06:53.921Z,42.78
2022-08-03T16:09:22.856Z,42.82
2022-08-03T16:11:49.732Z,43.02
2022-08-03T16:14:32.481Z,43.26
2022-08-03T16:17:02.309Z,43.49
2022-08-03T16:19:28.748Z,43.60
2022-08-03T16:21:55.170Z,43.82
2022-08-03T16:24:28.083Z,43.95
2022-08-03T16:26:55.281Z,44.00
2022-08-03T16:29:23.217Z,43.96
2022-08-03T16:31:51.254Z,44.01
2022-08-03T16:34:18.166Z,44.02
2022-08-03T16:36:45.629Z,44.00
2022-08-03T16:39:12.143Z,43.90
2022-08-03T16:41:54.119Z,43.40
2022-08-03T16:44:25.539Z,42.94
2022-08-03T16:46:53.485Z,42.45
2022-08-03T16:49:54.219Z,41.95
2022-08-03T16:52:07.119Z,41.45
2022-08-03T16:54:33.697Z,41.00
2022-08-03T16:57:01.257Z,40.63
2022-08-03T16:59:36.570Z,40.24
2022-08-03T17:02:09.918Z,39.93
2022-08-03T17:04:36.540Z,39.54
2022-08-03T17:07:07.678Z,39.21
2022-08-03T17:09:49.131Z,38.84
2022-08-03T17:12:15.992Z,38.48
2022-08-03T17:14:43.104Z,38.18
2022-08-03T17:17:16.965Z,37.91
2022-08-03T17:19:47.491Z,37.65
2022-08-03T17:22:17.633Z,37.40
2022-08-03T17:24:50.874Z,37.20
2022-08-03T17:28:48.618Z,37.00
2022-08-03T17:30:11.823Z,36.77
2022-08-03T17:32:42.687Z,36.60
2022-08-03T17:35:10.036Z,36.46
2022-08-03T17:37:58.539Z,36.30
2022-08-03T17:40:23.716Z,36.07
2022-08-03T17:42:50.907Z,35.89
2022-08-03T17:45:17.821Z,35.74
2022-08-03T17:47:45.452Z,35.56
2022-08-03T17:50:28.759Z,35.36
2022-08-03T17:53:07.084Z,35.26
2022-08-03T17:55:55.980Z,35.12
2022-08-03T17:58:55.174Z,34.96
2022-08-03T18:02:00.127Z,34.81
2022-08-03T18:04:37.991Z,34.61
2022-08-03T18:07:11.702Z,34.45
2022-08-03T18:10:04.239Z,34.31
2022-08-03T18:12:40.505Z,34.08
2022-08-03T18:15:10.020Z,33.95
2022-08-03T18:17:55.001Z,33.81
2022-08-03T18:20:32.936Z,33.66
2022-08-03T18:23:05.438Z,33.52
2022-08-03T18:25:45.310Z,33.41
2022-08-03T18:28:18.913Z,33.32
2022-08-03T18:30:53.492Z,33.25
2022-08-03T18:34:19.465Z,33.13
2022-08-03T18:36:21.815Z,32.93
2022-08-03T18:38:58.388Z,32.73
2022-08-03T18:41:32.619Z,32.55
2022-08-03T18:44:08.995Z,32.37
2022-08-03T18:47:15.958Z,32.17
2022-08-03T18:50:01.740Z,31.95
2022-08-03T18:52:40.178Z,31.75
2022-08-03T18:55:20.315Z,31.55
2022-08-03T18:58:06.576Z,31.38
2022-08-03T19:00:54.020Z,31.20
2022-08-03T19:03:23.886Z,31.04
2022-08-03T19:06:02.494Z,30.89
2022-08-03T19:08:44.184Z,30.73
2022-08-03T19:11:21.591Z,30.60
2022-08-03T19:13:56.632Z,30.47
2022-08-03T19:16:47.225Z,30.38
2022-08-03T19:19:18.062Z,30.28
2022-08-03T19:21:44.840Z,30.17
2022-08-03T19:24:13.538Z,30.10
2022-08-03T19:26:41.298Z,30.04
2022-08-03T19:29:15.129Z,29.97
2022-08-03T19:31:58.655Z,29.86
2022-08-03T19:34:29.008Z,29.76
2022-08-03T19:36:58.115Z,29.66
2022-08-03T19:39:25.439Z,29.55
2022-08-03T19:41:55.256Z,29.41
2022-08-03T19:44:29.916Z,29.29
2022-08-03T19:47:08.420Z,29.13
2022-08-03T19:50:05.764Z,29.01
2022-08-03T19:52:31.350Z,28.88
2022-08-03T19:55:00.366Z,28.79
2022-08-03T19:57:28.812Z,28.71
2022-08-03T19:59:56.933Z,28.62
2022-08-03T20:02:27.290Z,28.52
2022-08-03T20:04:57.840Z,28.44
2022-08-03T20:07:28.737Z,28.36
2022-08-03T20:09:56.416Z,28.31
2022-08-03T20:12:27.639Z,28.28
2022-08-03T20:14:56.975Z,28.23
2022-08-03T20:17:55.552Z,28.14
2022-08-03T20:20:10.361Z,28.02
2022-08-03T20:22:43.046Z,27.94
2022-08-03T20:25:13.110Z,27.85
2022-08-03T20:28:07.992Z,27.76
2022-08-03T20:30:37.736Z,27.65
2022-08-03T20:33:04.549Z,27.57
2022-08-03T20:35:32.449Z,27.53
2022-08-03T20:37:59.245Z,27.47
2022-08-03T20:40:27.364Z,27.39
2022-08-03T20:42:55.266Z,27.35
2022-08-03T20:45:59.883Z,27.29
2022-08-03T20:48:09.915Z,27.21
2022-08-03T20:50:38.362Z,27.16
2022-08-03T20:53:06.926Z,27.09
2022-08-03T20:55:47.918Z,27.02
2022-08-03T20:58:23.809Z,26.92
2022-08-03T21:00:51.452Z,26.81
2022-08-03T21:03:18.839Z,26.73
2022-08-03T21:05:51.345Z,26.66
2022-08-03T21:08:22.439Z,26.60
2022-08-03T21:10:50.083Z,26.55
2022-08-03T21:13:29.061Z,26.49
2022-08-03T21:16:01.184Z,26.41
2022-08-03T21:18:50.712Z,26.35
2022-08-03T21:21:21.479Z,26.30
2022-08-03T21:23:53.327Z,26.25
2022-08-03T21:26:24.796Z,26.15
2022-08-03T21:28:53.175Z,26.08
2022-08-03T21:31:25.090Z,26.01
2022-08-03T21:33:54.448Z,25.95
2022-08-03T21:36:20.997Z,25.89
2022-08-03T21:38:56.133Z,25.84
2022-08-03T21:41:23.620Z,25.76
2022-08-03T21:43:50.135Z,25.64
2022-08-03T21:46:18.946Z,25.56
2022-08-03T21:48:48.286Z,25.50
2022-08-03T21:51:18.427Z,25.42
2022-08-03T21:54:03.355Z,25.33
2022-08-03T21:56:51.502Z,25.24
2022-08-03T21:59:20.009Z,25.16
2022-08-03T22:01:55.209Z,25.12
2022-08-03T22:04:53.305Z,25.07
2022-08-03T22:07:09.277Z,25.05
2022-08-03T22:09:36.364Z,25.02
2022-08-03T22:12:03.667Z,25.01
2022-08-03T22:14:32.699Z,25.02
2022-08-03T22:17:00.049Z,25.02
2022-08-03T22:19:26.435Z,25.03
2022-08-03T22:21:54.356Z,25.03
2022-08-03T22:24:24.009Z,25.01
2022-08-03T22:27:09.750Z,24.96
2022-08-03T22:29:36.800Z,24.88
2022-08-03T22:32:03.715Z,24.82
2022-08-03T22:34:30.337Z,24.76
2022-08-03T22:37:01.492Z,24.72
2022-08-03T22:39:29.357Z,24.66
2022-08-03T22:41:59.119Z,24.62
2022-08-03T22:44:29.432Z,24.58
2022-08-03T22:46:56.525Z,24.52
2022-08-03T22:49:23.704Z,24.46
2022-08-03T22:51:51.922Z,24.37
2022-08-03T22:54:18.706Z,24.30
2022-08-03T22:56:46.695Z,24.23
2022-08-03T22:59:38.970Z,24.15
2022-08-03T23:02:15.129Z,24.08
2022-08-03T23:04:54.956Z,24.02
2022-08-03T23:07:37.163Z,23.97
2022-08-03T23:10:14.939Z,23.94
2022-08-03T23:12:43.159Z,23.91
2022-08-03T23:15:12.485Z,23.90
2022-08-03T23:17:57.401Z,23.90
2022-08-03T23:20:26.849Z,23.87
2022-08-03T23:22:55.741Z,23.87
2022-08-03T23:25:22.609Z,23.87
2022-08-03T23:28:04.526Z,23.86
2022-08-03T23:30:34.537Z,23.83
2022-08-03T23:33:02.872Z,23.80
2022-08-03T23:36:28.726Z,23.73
2022-08-03T23:38:36.054Z,23.63
2022-08-03T23:41:04.406Z,23.55
2022-08-03T23:43:51.011Z,23.49
2022-08-03T23:46:20.083Z,23.40
2022-08-03T23:48:46.532Z,23.34
2022-08-03T23:51:23.554Z,23.31
2022-08-03T23:54:02.037Z,23.23
2022-08-03T23:56:52.144Z,23.18
2022-08-03T23:59:27.717Z,23.13
